Tres Marias, Brazil
Current Conditions -  °F | °C
As of 10:00 PM on Saturday 20 Dec 2014 (Local Time) from SBLS Reporting Station
Scattered Clouds Scattered Clouds  
Wind Chill: 73°   Ceiling: Unl
Heat Index: 73°   Visibility: 6mi
Dew Point: 63°   Wind: 3mph
Humidity: 69%   Direction: 30°NNE
Pressure: 30"   Gusts: NA
Location:  18.21°S, 45.24°W
Report Text: SBLS 210000Z 03003KT 9999 SCT040 23/17 Q1016
Loading
Personal Weather Stations






























Interactive Weather Map New forecast layout! Learn more

10-Day Weather Forecast

Advertisements
Track Severe Weather on mobile